createdAt,value
2022-10-05T00:02:25.379Z,9.60
2022-10-05T00:07:20.167Z,9.50
2022-10-05T00:12:18.249Z,9.40
2022-10-05T00:17:25.094Z,9.40
2022-10-05T00:22:20.840Z,9.40
2022-10-05T00:27:19.928Z,9.30
2022-10-05T00:32:13.070Z,9.30
2022-10-05T00:37:06.750Z,9.30
2022-10-05T00:42:05.385Z,9.20
2022-10-05T00:47:14.883Z,9.10
2022-10-05T00:52:41.570Z,9.20
2022-10-05T00:57:45.495Z,9.10
2022-10-05T01:03:14.853Z,9.00
2022-10-05T01:08:33.088Z,8.90
2022-10-05T01:13:31.092Z,8.90
2022-10-05T01:18:49.570Z,8.80
2022-10-05T01:24:12.487Z,8.90
2022-10-05T01:29:16.810Z,8.90
2022-10-05T01:35:05.687Z,8.70
2022-10-05T01:41:13.185Z,8.60
2022-10-05T01:47:21.428Z,8.50
2022-10-05T01:53:29.846Z,8.40
2022-10-05T01:59:36.801Z,8.30
2022-10-05T02:05:31.363Z,8.30
2022-10-05T02:11:39.486Z,8.20
2022-10-05T02:17:46.811Z,8.20
2022-10-05T02:23:53.951Z,8.20
2022-10-05T02:30:00.920Z,8.20
2022-10-05T02:36:08.302Z,8.20
2022-10-05T02:42:16.675Z,8.10
2022-10-05T02:48:24.105Z,8.00
2022-10-05T02:54:32.049Z,7.90
2022-10-05T03:00:40.756Z,7.90
2022-10-05T03:06:48.272Z,7.70
2022-10-05T03:12:55.655Z,7.60
2022-10-05T03:19:02.909Z,7.60
2022-10-05T03:25:09.940Z,7.50
2022-10-05T03:30:23.985Z,7.60
2022-10-05T03:35:33.029Z,7.50
2022-10-05T03:41:15.385Z,7.50
2022-10-05T03:46:33.329Z,7.50
2022-10-05T03:51:33.208Z,7.50
2022-10-05T03:56:40.684Z,7.40
2022-10-05T04:01:56.863Z,7.40
2022-10-05T04:06:52.416Z,7.30
2022-10-05T04:11:52.154Z,7.30
2022-10-05T04:16:49.804Z,7.20
2022-10-05T04:22:13.511Z,7.10
2022-10-05T04:27:15.368Z,7.10
2022-10-05T04:32:32.979Z,7.20
2022-10-05T04:37:43.227Z,7.10
2022-10-05T04:42:56.523Z,7.10
2022-10-05T04:48:18.179Z,7.10
2022-10-05T04:53:19.366Z,7.10
2022-10-05T04:58:55.442Z,7.10
2022-10-05T05:03:54.946Z,7.00
2022-10-05T05:08:57.517Z,7.10
2022-10-05T05:13:58.502Z,7.10
2022-10-05T05:18:50.843Z,7.10
2022-10-05T05:24:09.125Z,7.10
2022-10-05T05:29:38.099Z,7.10
2022-10-05T05:34:50.547Z,7.10
2022-10-05T05:39:51.879Z,7.20
2022-10-05T05:44:52.193Z,7.40
2022-10-05T05:50:06.712Z,7.60
2022-10-05T05:55:29.938Z,7.70
2022-10-05T06:00:34.847Z,7.80
2022-10-05T06:05:37.972Z,7.90
2022-10-05T06:10:45.650Z,8.00
2022-10-05T06:15:56.680Z,8.20
2022-10-05T06:20:53.597Z,8.30
2022-10-05T06:25:46.370Z,8.50
2022-10-05T06:30:57.581Z,8.80
2022-10-05T06:36:13.331Z,9.20
2022-10-05T06:41:32.304Z,9.50
2022-10-05T06:46:46.796Z,9.70
2022-10-05T06:52:21.554Z,9.90
2022-10-05T06:57:50.364Z,11.70
2022-10-05T07:03:06.069Z,17.30
2022-10-05T07:08:00.624Z,20.40
2022-10-05T07:13:25.734Z,19.40
2022-10-05T07:18:58.822Z,17.40
2022-10-05T07:24:12.139Z,16.10
2022-10-05T07:29:10.980Z,15.60
2022-10-05T07:34:23.913Z,19.80
2022-10-05T07:39:58.491Z,22.90
2022-10-05T07:44:57.435Z,22.50
2022-10-05T07:50:09.089Z,23.90
2022-10-05T07:55:10.554Z,21.60
2022-10-05T08:00:16.038Z,20.20
2022-10-05T08:05:21.934Z,19.00
2022-10-05T08:10:44.253Z,18.00
2022-10-05T08:15:48.659Z,17.50
2022-10-05T08:20:58.731Z,17.20
2022-10-05T08:26:15.168Z,16.80
2022-10-05T08:31:23.233Z,16.90
2022-10-05T08:36:20.793Z,17.00
2022-10-05T08:41:28.023Z,17.30
2022-10-05T08:47:07.185Z,17.40
2022-10-05T08:52:21.089Z,17.60
2022-10-05T09:04:37.632Z,18.60
2022-10-05T09:09:38.669Z,20.00
2022-10-05T09:14:39.572Z,20.10
2022-10-05T09:19:50.469Z,19.50
2022-10-05T09:24:55.017Z,19.50
2022-10-05T09:29:56.249Z,20.00
2022-10-05T09:35:02.620Z,20.50
2022-10-05T09:40:32.538Z,22.30
2022-10-05T09:45:37.580Z,26.40
2022-10-05T09:50:41.467Z,28.90
2022-10-05T09:55:49.301Z,28.60
2022-10-05T10:01:09.169Z,28.10
2022-10-05T10:06:13.924Z,29.00
2022-10-05T10:11:12.031Z,27.90
2022-10-05T10:16:50.180Z,26.80
2022-10-05T10:22:11.581Z,27.80
2022-10-05T10:27:16.720Z,28.20
2022-10-05T10:32:38.198Z,27.20
2022-10-05T10:37:37.285Z,25.40
2022-10-05T10:42:51.171Z,24.40
2022-10-05T10:47:49.842Z,25.70
2022-10-05T10:58:27.328Z,27.80
2022-10-05T11:03:43.844Z,28.70
2022-10-05T11:08:53.635Z,30.30
2022-10-05T11:14:16.731Z,29.10
2022-10-05T11:19:35.192Z,27.60
2022-10-05T11:25:00.847Z,26.10
2022-10-05T11:30:28.857Z,26.00
2022-10-05T11:35:34.124Z,26.20
2022-10-05T11:40:51.541Z,26.00
2022-10-05T11:46:20.499Z,24.90
2022-10-05T11:51:25.214Z,24.20
2022-10-05T11:56:24.155Z,23.50
2022-10-05T12:01:26.603Z,22.90
2022-10-05T12:06:31.897Z,22.80
2022-10-05T12:11:45.436Z,22.70
2022-10-05T12:16:41.794Z,22.70
2022-10-05T12:21:49.438Z,23.00
2022-10-05T12:26:53.316Z,22.70
2022-10-05T12:32:30.415Z,22.40
2022-10-05T12:37:41.426Z,22.10
2022-10-05T12:42:48.466Z,22.00
2022-10-05T12:48:06.413Z,21.90
2022-10-05T12:53:30.963Z,21.90
2022-10-05T12:58:38.874Z,21.70
2022-10-05T13:03:37.512Z,21.30
2022-10-05T13:08:48.934Z,21.30
2022-10-05T13:13:49.795Z,21.30
2022-10-05T13:18:54.613Z,21.30
2022-10-05T13:23:46.871Z,21.50
2022-10-05T13:28:57.476Z,21.50
2022-10-05T13:34:06.074Z,21.60
2022-10-05T13:39:23.917Z,21.80
2022-10-05T13:44:27.155Z,21.90
2022-10-05T13:49:39.075Z,22.10
2022-10-05T13:55:03.150Z,22.00
2022-10-05T14:00:24.175Z,22.00
2022-10-05T14:05:25.606Z,22.20
2022-10-05T14:10:38.600Z,22.30
2022-10-05T14:15:32.828Z,22.20
2022-10-05T14:25:54.334Z,22.10
2022-10-05T14:31:00.736Z,22.00
2022-10-05T14:35:55.581Z,21.80
2022-10-05T14:41:03.236Z,21.50
2022-10-05T14:46:05.603Z,21.40
2022-10-05T14:51:03.544Z,21.50
2022-10-05T14:56:17.199Z,21.40
2022-10-05T15:01:28.329Z,21.20
2022-10-05T15:06:39.187Z,21.00
2022-10-05T15:12:00.826Z,20.90
2022-10-05T15:17:04.025Z,20.60
2022-10-05T15:22:41.617Z,20.40
2022-10-05T15:28:03.153Z,20.20
2022-10-05T15:33:13.345Z,19.90
2022-10-05T15:38:12.087Z,19.70
2022-10-05T15:43:29.090Z,19.30
2022-10-05T15:48:52.569Z,19.20
2022-10-05T15:54:26.279Z,19.10
2022-10-05T15:59:47.407Z,18.90
2022-10-05T16:05:04.779Z,18.80
2022-10-05T16:10:11.776Z,18.60
2022-10-05T16:21:03.236Z,18.30
2022-10-05T16:26:24.607Z,18.10
2022-10-05T16:31:31.339Z,17.90
2022-10-05T16:37:00.118Z,17.60
2022-10-05T16:47:41.829Z,17.40
2022-10-05T16:52:37.555Z,17.20
2022-10-05T16:57:40.703Z,17.10
2022-10-05T17:07:44.114Z,16.80
2022-10-05T17:13:00.182Z,16.50
2022-10-05T17:18:24.368Z,16.40
2022-10-05T17:23:35.431Z,16.30
2022-10-05T17:28:45.187Z,16.00
2022-10-05T17:34:01.715Z,15.90
2022-10-05T17:39:23.255Z,15.90
2022-10-05T17:44:31.576Z,15.90
2022-10-05T17:50:17.271Z,15.80
2022-10-05T17:55:34.327Z,15.70
2022-10-05T18:00:40.889Z,15.70
2022-10-05T18:05:33.324Z,15.70
2022-10-05T18:15:45.140Z,15.50
2022-10-05T18:21:14.602Z,15.40
2022-10-05T18:26:37.059Z,15.30
2022-10-05T18:31:51.545Z,15.00
2022-10-05T18:36:57.301Z,14.80
2022-10-05T18:42:17.460Z,14.60
2022-10-05T18:47:32.757Z,14.40
2022-10-05T18:52:47.935Z,14.40
2022-10-05T18:57:54.256Z,14.30
2022-10-05T19:02:52.363Z,14.30
2022-10-05T19:08:00.431Z,14.20
2022-10-05T19:19:39.126Z,14.30
2022-10-05T19:24:40.143Z,14.30
2022-10-05T19:35:33.865Z,14.10
2022-10-05T19:46:19.281Z,13.80
2022-10-05T19:51:40.947Z,13.80
2022-10-05T19:56:34.741Z,13.80
2022-10-05T20:01:37.060Z,13.70
2022-10-05T20:06:30.188Z,13.60
2022-10-05T20:11:27.422Z,13.50
2022-10-05T20:16:49.759Z,13.40
2022-10-05T20:21:44.303Z,13.30
2022-10-05T20:27:06.507Z,13.20
2022-10-05T20:32:00.062Z,13.10
2022-10-05T20:36:52.711Z,13.00
2022-10-05T20:41:46.006Z,13.00
2022-10-05T20:46:41.766Z,13.00
2022-10-05T20:51:35.113Z,12.90
2022-10-05T20:56:27.737Z,12.90
2022-10-05T21:01:20.399Z,12.90
2022-10-05T21:07:06.447Z,12.90
2022-10-05T21:12:14.759Z,13.00
2022-10-05T21:17:09.041Z,12.90
2022-10-05T21:22:02.569Z,13.00
2022-10-05T21:26:58.675Z,13.10
2022-10-05T21:31:54.593Z,13.10
2022-10-05T21:36:46.903Z,13.20
2022-10-05T21:41:39.221Z,13.30
2022-10-05T21:46:31.709Z,13.40
2022-10-05T21:51:26.073Z,13.60
2022-10-05T21:56:22.540Z,13.60
2022-10-05T22:01:17.795Z,13.60
2022-10-05T22:06:12.624Z,13.50
2022-10-05T22:11:17.066Z,13.40
2022-10-05T22:16:10.341Z,13.20
2022-10-05T22:21:02.787Z,13.10
2022-10-05T22:25:56.735Z,13.00
2022-10-05T22:30:50.029Z,13.00
2022-10-05T22:35:42.330Z,13.00
2022-10-05T22:40:36.722Z,13.00
2022-10-05T22:45:32.429Z,13.00
2022-10-05T22:50:24.975Z,13.00
2022-10-05T22:55:17.287Z,13.00
2022-10-05T23:00:11.452Z,12.90
2022-10-05T23:05:04.534Z,12.90
2022-10-05T23:09:57.952Z,12.90
2022-10-05T23:14:50.197Z,12.90
2022-10-05T23:19:42.403Z,12.90
2022-10-05T23:24:35.578Z,12.90
2022-10-05T23:29:28.846Z,13.00
2022-10-05T23:34:21.158Z,13.10
2022-10-05T23:39:14.342Z,13.50
2022-10-05T23:44:06.504Z,14.10
2022-10-05T23:48:58.724Z,14.60
2022-10-05T23:53:51.067Z,15.20
2022-10-05T23:58:43.655Z,15.40
